Time;durP1;ratioP1;P1;durP2;ratioP2;P2;SDS_P1;SDS_P2;PMS_P1;PMS_P2;Temp;Humidity;BMP_temperature;BMP_pressure;BME280_temperature;BME280_humidity;BME280_pressure;Samples;Min_cycle;Max_cycle;Signal;HPM_P1;HPM_P2
2022/10/31 08:01:42;;;;;;;29.50;22.08;;;;;;;13.09;100.00;101785.50;5312863;27;20404;-69
2022/10/31 08:04:13;;;;;;;30.13;22.92;;;;;;;13.12;100.00;101787.75;5292729;28;20029;-71
2022/10/31 08:06:44;;;;;;;23.13;20.25;;;;;;;13.20;100.00;101789.94;5294663;28;20034;-69
2022/10/31 08:09:16;;;;;;;27.17;22.30;;;;;;;13.24;100.00;101791.00;5281006;28;20071;-68
2022/10/31 08:11:47;;;;;;;31.08;23.13;;;;;;;13.31;100.00;101802.72;5279578;28;20039;-68
2022/10/31 08:14:18;;;;;;;33.25;24.27;;;;;;;13.39;100.00;101796.56;5278398;28;20429;-70
2022/10/31 08:16:49;;;;;;;32.72;23.92;;;;;;;13.44;100.00;101796.53;5294191;28;20020;-69
2022/10/31 08:19:21;;;;;;;26.88;23.83;;;;;;;13.50;100.00;101789.00;5281827;28;20025;-69
2022/10/31 08:21:54;;;;;;;30.55;24.73;;;;;;;13.54;100.00;101783.69;5279776;28;20419;-69
2022/10/31 08:24:26;;;;;;;31.30;22.58;;;;;;;13.56;100.00;101775.88;5280107;28;20025;-69
2022/10/31 08:26:57;;;;;;;30.63;23.90;;;;;;;13.63;100.00;101787.53;5278210;28;20025;-69
2022/10/31 08:29:28;;;;;;;26.25;22.50;;;;;;;13.72;100.00;101804.47;5294698;28;20036;-70
2022/10/31 08:32:00;;;;;;;28.17;22.23;;;;;;;13.79;100.00;101794.66;5279879;28;20031;-70
2022/10/31 08:34:31;;;;;;;29.20;21.95;;;;;;;13.81;100.00;101778.50;5278746;28;20017;-69
2022/10/31 08:37:02;;;;;;;30.88;22.50;;;;;;;13.84;100.00;101786.28;5279722;28;20024;-69
2022/10/31 08:39:36;;;;;;;27.08;23.50;;;;;;;13.86;100.00;101769.28;5279505;28;20036;-69
2022/10/31 08:42:07;;;;;;;23.45;20.92;;;;;;;13.88;100.00;101751.13;5278839;28;20025;-69
2022/10/31 08:44:39;;;;;;;24.10;21.63;;;;;;;13.94;100.00;101735.19;5279260;28;20434;-70
2022/10/31 08:47:10;;;;;;;30.17;24.20;;;;;;;13.99;100.00;101735.16;5292747;28;20377;-70
2022/10/31 08:49:41;;;;;;;26.48;22.02;;;;;;;13.91;100.00;101736.59;5290154;28;20024;-70
2022/10/31 08:52:14;;;;;;;31.30;24.40;;;;;;;13.91;100.00;101733.81;5265356;28;20025;-69
2022/10/31 08:54:46;;;;;;;26.35;23.52;;;;;;;13.97;100.00;101747.72;5257603;28;20036;-69
2022/10/31 08:57:17;;;;;;;26.48;22.70;;;;;;;14.01;100.00;101776.66;5288782;28;20507;-70
2022/10/31 08:59:48;;;;;;;28.73;22.77;;;;;;;14.02;100.00;101756.03;5297127;28;20341;-70
2022/10/31 09:02:19;;;;;;;29.20;23.77;;;;;;;14.04;100.00;101759.38;5277944;28;20025;-70
2022/10/31 09:04:51;;;;;;;28.48;23.42;;;;;;;14.09;100.00;101750.97;5286314;28;20024;-70
2022/10/31 09:07:22;;;;;;;28.75;24.75;;;;;;;14.12;100.00;101747.59;5293707;28;20047;-70
2022/10/31 09:09:55;;;;;;;35.63;25.05;;;;;;;14.11;100.00;101745.91;5283974;28;20013;-70
2022/10/31 09:12:26;;;;;;;26.83;23.98;;;;;;;14.23;100.00;101754.75;5268775;28;20033;-70
2022/10/31 09:15:00;;;;;;;30.30;23.92;;;;;;;14.25;100.00;101763.66;5276342;28;20391;-70
2022/10/31 09:17:32;;;;;;;32.28;24.40;;;;;;;14.24;100.00;101769.50;5263969;28;20025;-70
2022/10/31 09:20:03;;;;;;;30.48;22.70;;;;;;;14.28;100.00;101756.66;5277646;28;20502;-71
2022/10/31 09:22:34;;;;;;;34.47;24.98;;;;;;;14.32;100.00;101732.63;5267873;28;20036;-70
2022/10/31 09:25:06;;;;;;;27.63;24.17;;;;;;;14.30;100.00;101738.50;5280158;28;20026;-71
2022/10/31 09:27:37;;;;;;;36.28;24.13;;;;;;;14.40;100.00;101717.22;5276419;28;20021;-71
2022/10/31 09:30:09;;;;;;;32.58;24.38;;;;;;;14.41;100.00;101719.69;5263674;28;20049;-71
2022/10/31 09:32:40;;;;;;;33.55;24.27;;;;;;;14.41;100.00;101704.91;5267868;28;20052;-70
2022/10/31 09:35:12;;;;;;;29.08;23.60;;;;;;;14.44;100.00;101707.09;5282739;28;20035;-71
2022/10/31 09:37:43;;;;;;;33.08;23.98;;;;;;;14.48;100.00;101694.25;5264129;28;20037;-71
2022/10/31 09:40:14;;;;;;;32.33;25.08;;;;;;;14.49;100.00;101681.94;5264562;28;20028;-71
2022/10/31 09:43:11;;;;;;;26.90;24.08;;;;;;;14.55;100.00;101687.22;5264834;28;20060;-70
2022/10/31 09:45:49;;;;;;;;;;;;;;;14.63;100.00;101705.25;5243638;28;20087;-71
2022/10/31 09:48:51;;;;;;;30.08;22.65;;;;;;;14.63;100.00;101710.03;5274679;28;20344;-73
2022/10/31 09:51:28;;;;;;;32.70;23.45;;;;;;;14.56;100.00;101702.00;5270428;28;20112;-72
2022/10/31 09:54:05;;;;;;;27.60;23.25;;;;;;;14.61;100.00;101701.94;5264648;28;20479;-70
2022/10/31 09:56:37;;;;;;;29.77;24.73;;;;;;;14.61;100.00;101685.19;5284393;28;20039;-71
2022/10/31 09:59:21;;;;;;;29.10;23.20;;;;;;;14.65;100.00;101702.16;5242433;28;20449;-73
2022/10/31 10:02:02;;;;;;;31.30;22.80;;;;;;;14.70;100.00;101696.53;5243627;28;20032;-71
2022/10/31 10:04:49;;;;;;;24.45;21.73;;;;;;;14.84;100.00;101677.09;5267086;28;20033;-72
2022/10/31 10:07:32;;;;;;;31.30;24.73;;;;;;;14.77;100.00;101655.94;5263935;28;20036;-72
2022/10/31 10:10:42;;;;;;;35.20;24.67;;;;;;;14.92;100.00;101660.50;5264042;28;20056;-69
2022/10/31 10:13:26;;;;;;;28.00;23.27;;;;;;;14.99;100.00;101660.16;5267318;28;20029;-71
2022/10/31 10:16:38;;;;;;;32.35;24.00;;;;;;;15.06;100.00;101656.97;5264575;28;20021;-71
2022/10/31 10:19:22;;;;;;;33.05;25.38;;;;;;;14.98;100.00;101656.53;5268330;28;20379;-69
2022/10/31 10:22:15;;;;;;;33.50;25.88;;;;;;;15.07;100.00;101653.06;5272485;28;20091;-80
2022/10/31 10:25:13;;;;;;;34.13;25.55;;;;;;;15.15;100.00;101636.44;5276602;28;20024;-80
2022/10/31 10:28:03;;;;;;;44.85;39.35;;;;;;;15.18;100.00;101627.44;5282852;28;20371;-82
2022/10/31 10:30:43;;;;;;;35.22;28.45;;;;;;;15.20;100.00;101624.38;5278563;28;20025;-80
2022/10/31 10:33:20;;;;;;;36.20;26.98;;;;;;;15.27;100.00;101624.00;5242451;28;20106;-81
2022/10/31 10:36:22;;;;;;;34.25;25.17;;;;;;;15.29;100.00;101638.47;5282274;28;20052;-80
2022/10/31 10:39:04;;;;;;;37.85;30.35;;;;;;;15.26;100.00;101644.69;5249974;28;20037;-80
2022/10/31 10:41:36;;;;;;;38.47;26.23;;;;;;;15.37;100.00;101640.63;5274961;28;20032;-78
2022/10/31 10:44:09;;;;;;;36.97;27.83;;;;;;;15.36;100.00;101650.13;5267348;28;20056;-80
2022/10/31 10:49:52;;;;;;;39.55;27.83;;;;;;;15.45;100.00;101637.13;5263814;28;20096;-79
2022/10/31 10:52:40;;;;;;;33.90;26.48;;;;;;;15.48;100.00;101630.94;5265601;28;21682;-79
2022/10/31 10:55:41;;;;;;;35.83;27.58;;;;;;;15.50;100.00;101617.47;5272796;28;20029;-79
2022/10/31 10:58:12;;;;;;;41.00;28.35;;;;;;;15.50;100.00;101606.31;5263258;28;20025;-80
2022/10/31 11:00:46;;;;;;;37.85;28.40;;;;;;;15.54;100.00;101612.09;5279566;28;20121;-79
2022/10/31 11:03:17;;;;;;;39.78;30.05;;;;;;;15.57;100.00;101611.47;5264232;28;20516;-79
2022/10/31 11:05:52;;;;;;;41.42;28.80;;;;;;;15.63;100.00;101622.28;5262612;28;20107;-79
2022/10/31 11:08:35;;;;;;;75.47;63.08;;;;;;;15.64;100.00;101623.94;5261813;28;20063;-79
2022/10/31 11:11:31;;;;;;;38.75;32.35;;;;;;;15.70;100.00;101616.34;5267724;28;20036;-79
2022/10/31 11:14:12;;;;;;;36.97;29.85;;;;;;;15.70;100.00;101610.75;5262228;28;20033;-78
2022/10/31 11:16:47;;;;;;;41.38;29.55;;;;;;;15.74;100.00;101610.97;5274178;28;20060;-78
2022/10/31 11:19:19;;;;;;;;;;;;;;;15.82;100.00;101599.06;5265315;28;20091;-78
2022/10/31 11:21:51;;;;;;;42.00;29.23;;;;;;;15.79;100.00;101585.69;5261725;28;20295;-78
2022/10/31 11:24:27;;;;;;;38.92;28.88;;;;;;;15.78;100.00;101568.09;5262421;28;20021;-79
2022/10/31 11:27:19;;;;;;;39.00;28.85;;;;;;;15.81;100.00;101566.66;5263043;28;20037;-82
2022/10/31 11:29:51;;;;;;;35.03;29.20;;;;;;;15.78;100.00;101559.72;5261602;28;20042;-75
2022/10/31 11:32:26;;;;;;;37.28;27.80;;;;;;;15.83;100.00;101558.78;5262803;28;20051;-81
2022/10/31 11:35:01;;;;;;;36.95;28.27;;;;;;;15.86;100.00;101546.97;5263042;28;20020;-82
2022/10/31 11:37:35;;;;;;;30.15;26.67;;;;;;;15.89;100.00;101546.34;5261468;28;20419;-81
2022/10/31 11:40:15;;;;;;;30.40;25.27;;;;;;;15.89;100.00;101537.97;5262084;28;20439;-79
2022/10/31 11:42:48;;;;;;;35.50;26.75;;;;;;;15.95;100.00;101521.91;5275539;28;20032;-87
2022/10/31 11:45:30;;;;;;;34.13;26.27;;;;;;;16.01;100.00;101520.69;5282972;28;20032;-82
2022/10/31 11:48:14;;;;;;;24.33;21.67;;;;;;;16.11;100.00;101514.06;5254871;28;20095;-78
2022/10/31 11:50:56;;;;;;;28.58;24.08;;;;;;;16.20;100.00;101513.00;5278390;28;20031;-77
2022/10/31 11:53:30;;;;;;;34.47;26.83;;;;;;;16.25;100.00;101506.47;5245280;28;20029;-79
2022/10/31 11:56:04;;;;;;;30.17;24.13;;;;;;;16.25;100.00;101500.88;5263253;28;20061;-73
2022/10/31 11:58:36;;;;;;;28.40;22.83;;;;;;;16.25;100.00;101495.28;5258795;28;20044;-71
2022/10/31 12:01:24;;;;;;;31.10;23.30;;;;;;;16.33;100.00;101496.53;5261457;28;20045;-71
2022/10/31 12:04:06;;;;;;;31.48;25.25;;;;;;;16.45;100.00;101486.44;5260704;28;20024;-71
2022/10/31 12:06:39;;;;;;;30.48;24.45;;;;;;;16.46;99.35;101476.06;5281955;28;20048;-71
2022/10/31 12:09:28;;;;;;;33.47;24.50;;;;;;;16.50;98.97;101471.50;5272846;28;20136;-71
2022/10/31 12:12:08;;;;;;;31.23;23.83;;;;;;;16.50;98.62;101466.72;5260630;28;20090;-71
2022/10/31 12:14:57;;;;;;;29.60;22.52;;;;;;;16.56;98.95;101459.03;5262097;28;20072;-72
2022/10/31 12:17:47;;;;;;;30.40;23.10;;;;;;;16.56;98.63;101447.00;5270020;28;20036;-74
2022/10/31 12:20:57;;;;;;;28.70;23.00;;;;;;;16.59;98.84;101446.38;5260332;28;20033;-73
2022/10/31 12:23:28;;;;;;;29.85;23.65;;;;;;;16.62;98.74;101440.16;5260813;28;20037;-73
2022/10/31 12:26:27;;;;;;;30.20;24.52;;;;;;;16.68;98.57;101431.31;5281626;28;20479;-74
2022/10/31 12:29:13;;;;;;;28.15;23.27;;;;;;;16.71;98.42;101430.66;5261639;28;20396;-73
2022/10/31 12:32:15;;;;;;;41.55;34.67;;;;;;;16.78;97.91;101419.06;5262318;28;20029;-74
2022/10/31 12:35:01;;;;;;;30.98;23.17;;;;;;;16.81;97.43;101415.63;5213978;28;20484;-74
2022/10/31 12:37:39;;;;;;;30.00;22.45;;;;;;;16.90;97.19;101410.94;5251476;28;20032;-73
2022/10/31 12:40:27;;;;;;;26.65;22.08;;;;;;;17.03;96.91;101406.41;5281536;28;20124;-74
2022/10/31 12:43:44;;;;;;;32.35;23.23;;;;;;;17.15;96.47;101398.22;5282328;28;20391;-73
2022/10/31 12:46:37;;;;;;;30.15;23.52;;;;;;;17.23;94.85;101377.00;5266852;28;20037;-72
2022/10/31 12:49:28;;;;;;;27.70;21.10;;;;;;;17.29;94.16;101358.06;5281273;28;20098;-72
2022/10/31 12:52:19;;;;;;;34.10;23.15;;;;;;;17.28;93.05;101360.06;5274215;28;20375;-73
2022/10/31 12:55:27;;;;;;;31.73;21.58;;;;;;;17.40;92.43;101348.22;5264784;28;20029;-73
2022/10/31 12:58:04;;;;;;;25.63;20.05;;;;;;;17.45;91.53;101338.84;5281672;28;20024;-73
2022/10/31 13:00:41;;;;;;;21.50;18.85;;;;;;;17.48;90.87;101338.19;5264372;28;20131;-73
2022/10/31 13:03:42;;;;;;;24.27;16.63;;;;;;;17.49;88.51;101328.63;5252501;28;20330;-72
2022/10/31 13:06:20;;;;;;;23.48;15.65;;;;;;;17.46;88.71;101326.44;5223857;28;20069;-72
2022/10/31 13:08:57;;;;;;;24.77;16.27;;;;;;;17.48;88.55;101315.75;5234638;28;20384;-73
2022/10/31 13:11:37;;;;;;;21.00;18.02;;;;;;;17.47;89.20;101309.31;5243877;28;20029;-73
2022/10/31 13:14:17;;;;;;;23.02;17.25;;;;;;;17.55;88.76;101302.09;5244670;28;20026;-73
2022/10/31 13:16:52;;;;;;;22.08;17.23;;;;;;;17.58;87.47;101296.63;5244447;28;20041;-75
2022/10/31 13:19:32;;;;;;;22.70;15.70;;;;;;;17.57;87.12;101280.97;5244000;28;20116;-75
2022/10/31 13:22:12;;;;;;;18.67;16.00;;;;;;;17.55;87.68;101271.22;5243306;28;20077;-74
2022/10/31 13:24:49;;;;;;;24.83;16.98;;;;;;;17.50;88.07;101268.59;5249299;28;20031;-74
2022/10/31 13:27:29;;;;;;;26.33;17.83;;;;;;;17.55;88.66;101263.66;5263676;28;20035;-76
2022/10/31 13:30:02;;;;;;;21.80;16.75;;;;;;;17.63;88.41;101273.22;5261119;28;20442;-76
2022/10/31 13:32:46;;;;;;;26.33;17.67;;;;;;;17.56;87.03;101268.13;5262522;28;20538;-75
2022/10/31 13:35:37;;;;;;;22.17;17.33;;;;;;;17.65;87.27;101259.72;5264781;28;20036;-78
2022/10/31 13:38:21;;;;;;;24.02;17.23;;;;;;;17.64;86.83;101254.41;5259181;28;20071;-75
2022/10/31 13:41:02;;;;;;;24.87;17.20;;;;;;;17.68;86.85;101247.00;5243623;28;20041;-75
2022/10/31 13:43:56;;;;;;;37.42;32.47;;;;;;;17.75;86.73;101234.16;5252704;28;20376;-77
2022/10/31 13:46:30;;;;;;;21.88;15.73;;;;;;;17.80;85.96;101236.00;5252735;28;20021;-76
2022/10/31 13:49:23;;;;;;;20.75;15.70;;;;;;;17.76;85.10;101229.34;5265001;28;20040;-81
2022/10/31 13:52:13;;;;;;;20.90;15.15;;;;;;;17.78;85.03;101225.06;5257026;28;20032;-81
2022/10/31 13:54:48;;;;;;;22.83;15.18;;;;;;;17.71;83.96;101213.50;5258020;28;20029;-73
2022/10/31 13:57:34;;;;;;;20.83;13.48;;;;;;;17.63;83.92;101214.31;5251508;28;20029;-78
2022/10/31 14:00:26;;;;;;;20.90;13.43;;;;;;;17.58;84.83;101218.13;5269657;28;20056;-83
2022/10/31 14:02:57;;;;;;;18.33;13.95;;;;;;;17.41;84.39;101209.69;5267660;28;20087;-72
2022/10/31 14:05:34;;;;;;;20.38;13.60;;;;;;;17.31;85.38;101210.84;5263227;28;20021;-71
2022/10/31 14:08:18;;;;;;;20.15;13.48;;;;;;;17.25;85.62;101205.69;5273878;28;20032;-73
2022/10/31 14:10:53;;;;;;;15.63;13.00;;;;;;;17.19;85.42;101210.63;5283840;28;20131;-72
2022/10/31 14:13:32;;;;;;;17.77;11.88;;;;;;;17.25;85.35;101209.31;5280869;28;20395;-71
2022/10/31 14:16:16;;;;;;;15.45;12.68;;;;;;;17.17;85.21;101199.72;5283172;28;20115;-72
2022/10/31 14:18:59;;;;;;;16.63;13.60;;;;;;;17.16;85.56;101191.66;5278705;28;20430;-74
2022/10/31 14:21:37;;;;;;;23.30;17.20;;;;;;;17.14;85.16;101191.16;5263773;28;20017;-74
2022/10/31 14:24:23;;;;;;;17.73;12.32;;;;;;;17.17;85.55;101193.31;5263815;28;20031;-73
2022/10/31 14:26:56;;;;;;;19.67;12.48;;;;;;;17.14;85.58;101189.19;5265631;28;20029;-75
2022/10/31 14:29:33;;;;;;;15.75;11.43;;;;;;;17.10;85.43;101185.41;5279020;28;20040;-75
2022/10/31 14:32:18;;;;;;;14.57;11.40;;;;;;;17.14;85.57;101182.75;5274236;28;20044;-74
2022/10/31 14:34:49;;;;;;;17.65;12.55;;;;;;;17.10;85.79;101173.34;5242629;28;20038;-75
2022/10/31 14:37:42;;;;;;;12.60;10.60;;;;;;;17.20;86.36;101178.63;5259696;28;20025;-77
2022/10/31 14:40:34;;;;;;;16.67;12.38;;;;;;;17.14;85.99;101183.56;5282775;28;20294;-75
2022/10/31 14:43:53;;;;;;;18.20;11.48;;;;;;;17.11;85.87;101180.63;5279320;28;20365;-75
2022/10/31 14:46:36;;;;;;;19.38;13.15;;;;;;;17.09;85.92;101171.69;5190127;28;20052;-75
2022/10/31 14:49:38;;;;;;;17.05;12.07;;;;;;;17.10;85.96;101162.13;5275824;28;20037;-74
2022/10/31 14:52:13;;;;;;;44.40;35.85;;;;;;;17.14;86.06;101151.94;5282566;28;20024;-76
2022/10/31 14:54:54;;;;;;;14.90;12.35;;;;;;;17.17;85.96;101151.28;5266015;28;20039;-76
2022/10/31 14:57:33;;;;;;;15.02;11.93;;;;;;;17.20;85.99;101135.78;5282975;28;20066;-76
2022/10/31 15:00:07;;;;;;;20.25;11.55;;;;;;;17.23;86.90;101141.56;5279818;28;20052;-78
2022/10/31 15:02:57;;;;;;;14.20;11.38;;;;;;;17.19;85.48;101125.75;5261461;28;20029;-76
2022/10/31 15:05:29;;;;;;;15.45;11.45;;;;;;;17.14;85.70;101109.91;5282062;28;20045;-77
2022/10/31 15:08:01;;;;;;;17.42;11.85;;;;;;;17.14;85.89;101099.50;5282517;28;20044;-77
2022/10/31 15:10:36;;;;;;;21.20;11.80;;;;;;;17.10;85.84;101089.28;5272269;28;20068;-77
2022/10/31 15:13:10;;;;;;;14.35;9.70;;;;;;;17.03;86.12;101084.19;5277844;28;20060;-76
2022/10/31 15:15:42;;;;;;;16.38;11.68;;;;;;;17.04;86.84;101082.19;5282527;28;20125;-77
2022/10/31 15:18:19;;;;;;;18.83;12.27;;;;;;;17.00;86.70;101073.63;5282946;28;20109;-77
2022/10/31 15:20:52;;;;;;;16.73;12.00;;;;;;;16.94;86.79;101066.53;5271092;28;20024;-76
2022/10/31 15:23:31;;;;;;;17.15;11.52;;;;;;;16.97;87.20;101070.63;5276764;28;20029;-76
2022/10/31 15:26:05;;;;;;;18.20;11.27;;;;;;;17.01;87.09;101071.66;5265773;28;20041;-80
2022/10/31 15:28:36;;;;;;;16.92;10.02;;;;;;;17.00;87.81;101069.97;5261822;28;20035;-76
2022/10/31 15:31:15;;;;;;;16.95;10.25;;;;;;;16.93;87.52;101060.09;5264238;28;20500;-77
2022/10/31 15:33:49;;;;;;;14.82;11.52;;;;;;;16.90;87.71;101065.53;5268759;28;20100;-77
2022/10/31 15:36:23;;;;;;;16.85;12.02;;;;;;;16.93;87.92;101068.50;5267556;28;20032;-77
2022/10/31 15:38:57;;;;;;;15.85;11.77;;;;;;;16.89;88.27;101061.91;5261668;28;20028;-76
2022/10/31 15:41:37;;;;;;;17.08;11.90;;;;;;;16.90;87.94;101066.34;5258999;28;20051;-75
2022/10/31 15:44:31;;;;;;;16.08;11.82;;;;;;;16.87;88.59;101061.41;5274826;28;20119;-77
2022/10/31 15:47:17;;;;;;;20.02;12.32;;;;;;;16.83;88.65;101051.19;5271392;28;20028;-77
2022/10/31 15:50:00;;;;;;;14.35;10.77;;;;;;;16.78;89.07;101052.16;5260968;28;20058;-76
2022/10/31 15:52:37;;;;;;;18.92;11.40;;;;;;;16.74;88.97;101060.38;5249404;28;20029;-77
2022/10/31 15:55:09;;;;;;;18.67;11.02;;;;;;;16.72;89.01;101059.06;5265933;28;20044;-76
2022/10/31 15:58:22;;;;;;;14.50;10.43;;;;;;;16.67;89.44;101050.81;5261323;28;20029;-75
2022/10/31 16:01:02;;;;;;;14.55;10.32;;;;;;;16.59;89.36;101048.78;5163209;28;20321;-76
2022/10/31 16:03:33;;;;;;;18.80;13.68;;;;;;;16.64;89.73;101051.44;5183592;28;20026;-74
2022/10/31 16:06:05;;;;;;;19.60;13.93;;;;;;;16.63;89.56;101044.19;5244667;28;20091;-74
2022/10/31 16:08:37;;;;;;;12.57;9.48;;;;;;;16.61;89.76;101046.50;5279406;28;20036;-74
2022/10/31 16:11:12;;;;;;;15.70;10.30;;;;;;;16.59;89.75;101046.84;5276372;28;20361;-74
2022/10/31 16:14:00;;;;;;;14.95;11.60;;;;;;;16.56;90.04;101044.66;5277190;28;20043;-72
2022/10/31 16:16:33;;;;;;;16.38;10.18;;;;;;;16.61;90.24;101036.09;5282410;28;20103;-73
2022/10/31 16:19:05;;;;;;;16.15;11.85;;;;;;;16.50;90.26;101035.59;5272800;28;20025;-73
2022/10/31 16:21:38;;;;;;;11.70;9.77;;;;;;;16.61;91.15;101026.88;5280376;28;20086;-73
2022/10/31 16:24:29;;;;;;;17.75;10.23;;;;;;;16.51;90.30;101028.88;5286169;28;20043;-73
2022/10/31 16:27:06;;;;;;;14.50;10.50;;;;;;;16.52;90.44;101029.69;5286952;28;20027;-73
2022/10/31 16:29:42;;;;;;;20.73;13.48;;;;;;;16.47;90.17;101013.84;5284308;28;20017;-74
2022/10/31 16:32:29;;;;;;;15.82;10.20;;;;;;;16.49;90.14;101016.34;5285865;28;20491;-75
2022/10/31 16:35:09;;;;;;;14.95;10.07;;;;;;;16.46;89.72;101022.56;5276531;28;20033;-74
2022/10/31 16:37:41;;;;;;;13.48;10.43;;;;;;;16.42;89.93;101013.19;5285788;28;20051;-74
2022/10/31 16:40:14;;;;;;;15.57;10.60;;;;;;;16.43;89.68;101014.81;5281519;28;20021;-73
2022/10/31 16:42:48;;;;;;;16.58;9.85;;;;;;;16.39;89.32;101022.25;5270782;28;20097;-74
2022/10/31 16:45:22;;;;;;;13.05;8.82;;;;;;;16.28;89.39;101024.50;5268833;28;20024;-74
2022/10/31 16:48:01;;;;;;;19.50;9.40;;;;;;;16.29;89.27;101018.56;5273811;28;20021;-76
2022/10/31 16:50:33;;;;;;;12.05;8.98;;;;;;;16.32;89.18;101014.31;5265125;28;20037;-72
2022/10/31 16:53:04;;;;;;;10.43;8.38;;;;;;;16.35;89.86;101013.66;5259153;28;20025;-73
2022/10/31 16:55:46;;;;;;;14.57;9.45;;;;;;;16.35;89.42;101008.06;5265399;28;20112;-74
2022/10/31 16:58:25;;;;;;;14.57;9.43;;;;;;;16.31;89.70;101007.06;5265708;28;20468;-74
2022/10/31 17:00:58;;;;;;;12.43;8.43;;;;;;;16.44;90.47;101006.13;5279157;28;20483;-74
2022/10/31 17:03:30;;;;;;;11.52;7.93;;;;;;;16.35;89.00;100999.66;5268992;28;20033;-75
2022/10/31 17:06:01;;;;;;;17.63;9.13;;;;;;;16.29;88.94;101001.78;5265354;28;20104;-74
2022/10/31 17:08:32;;;;;;;13.75;8.55;;;;;;;16.23;88.38;100991.91;5268026;28;20124;-73
2022/10/31 17:11:05;;;;;;;13.85;9.57;;;;;;;16.21;88.37;100988.59;5264405;28;20103;-72
2022/10/31 17:13:36;;;;;;;14.32;8.65;;;;;;;16.17;88.40;100986.78;5263913;28;20112;-73
2022/10/31 17:16:07;;;;;;;11.30;8.60;;;;;;;16.16;88.37;100996.31;5265799;28;20463;-73
2022/10/31 17:18:39;;;;;;;16.48;8.98;;;;;;;16.14;88.31;100990.22;5284290;28;20050;-73
2022/10/31 17:21:19;;;;;;;13.15;9.18;;;;;;;16.13;88.19;100980.16;5264152;28;20478;-73
2022/10/31 17:23:50;;;;;;;14.48;8.63;;;;;;;16.12;88.56;100975.72;5264577;28;20487;-73
2022/10/31 17:26:22;;;;;;;15.52;9.35;;;;;;;16.06;88.38;100973.06;5276788;28;20020;-73
2022/10/31 17:28:58;;;;;;;11.95;8.35;;;;;;;16.03;88.48;100973.72;5264165;28;20099;-76
2022/10/31 17:31:33;;;;;;;15.85;10.00;;;;;;;16.01;88.36;100961.22;5273314;28;20037;-75
